sensor_id;sensor_type;location;lat;lon;timestamp;temperature;humidity
20091;DHT22;10205;49.678;6.560;2023-06-22T00:01:17;31.20;43.10
20091;DHT22;10205;49.678;6.560;2023-06-22T00:03:45;31.20;43.10
20091;DHT22;10205;49.678;6.560;2023-06-22T00:06:12;31.10;43.30
20091;DHT22;10205;49.678;6.560;2023-06-22T00:08:40;31.10;43.30
20091;DHT22;10205;49.678;6.560;2023-06-22T00:11:08;31.10;43.50
20091;DHT22;10205;49.678;6.560;2023-06-22T00:13:37;31.00;43.70
20091;DHT22;10205;49.678;6.560;2023-06-22T00:16:04;31.00;43.90
20091;DHT22;10205;49.678;6.560;2023-06-22T00:18:32;30.90;43.90
20091;DHT22;10205;49.678;6.560;2023-06-22T00:20:59;30.90;43.90
20091;DHT22;10205;49.678;6.560;2023-06-22T00:23:27;30.80;43.90
20091;DHT22;10205;49.678;6.560;2023-06-22T00:25:59;30.70;44.00
20091;DHT22;10205;49.678;6.560;2023-06-22T00:28:26;30.70;44.10
20091;DHT22;10205;49.678;6.560;2023-06-22T00:30:55;30.60;44.20
20091;DHT22;10205;49.678;6.560;2023-06-22T00:33:23;30.60;44.30
20091;DHT22;10205;49.678;6.560;2023-06-22T00:35:50;30.50;44.50
20091;DHT22;10205;49.678;6.560;2023-06-22T00:38:18;30.50;44.60
20091;DHT22;10205;49.678;6.560;2023-06-22T00:40:45;30.40;45.20
20091;DHT22;10205;49.678;6.560;2023-06-22T00:43:12;30.40;45.00
20091;DHT22;10205;49.678;6.560;2023-06-22T00:45:40;30.40;44.90
20091;DHT22;10205;49.678;6.560;2023-06-22T00:48:12;30.30;45.20
20091;DHT22;10205;49.678;6.560;2023-06-22T00:50:40;30.30;45.20
20091;DHT22;10205;49.678;6.560;2023-06-22T00:53:08;30.20;45.10
20091;DHT22;10205;49.678;6.560;2023-06-22T00:55:38;30.20;45.10
20091;DHT22;10205;49.678;6.560;2023-06-22T00:58:09;30.10;45.20
20091;DHT22;10205;49.678;6.560;2023-06-22T01:00:39;30.10;45.20
20091;DHT22;10205;49.678;6.560;2023-06-22T01:03:07;30.00;45.10
20091;DHT22;10205;49.678;6.560;2023-06-22T01:05:37;30.00;45.40
20091;DHT22;10205;49.678;6.560;2023-06-22T01:08:12;29.90;45.40
20091;DHT22;10205;49.678;6.560;2023-06-22T01:10:52;29.90;45.50
20091;DHT22;10205;49.678;6.560;2023-06-22T01:13:29;29.90;45.40
20091;DHT22;10205;49.678;6.560;2023-06-22T01:16:04;29.80;45.70
20091;DHT22;10205;49.678;6.560;2023-06-22T01:18:36;29.80;45.60
20091;DHT22;10205;49.678;6.560;2023-06-22T01:21:14;29.80;45.60
20091;DHT22;10205;49.678;6.560;2023-06-22T01:23:56;29.70;46.10
20091;DHT22;10205;49.678;6.560;2023-06-22T01:26:36;29.60;46.70
20091;DHT22;10205;49.678;6.560;2023-06-22T01:29:09;29.60;46.10
20091;DHT22;10205;49.678;6.560;2023-06-22T01:31:39;29.60;46.10
20091;DHT22;10205;49.678;6.560;2023-06-22T01:34:08;29.50;46.10
20091;DHT22;10205;49.678;6.560;2023-06-22T01:36:38;29.50;46.20
20091;DHT22;10205;49.678;6.560;2023-06-22T01:39:07;29.40;46.20
20091;DHT22;10205;49.678;6.560;2023-06-22T01:41:37;29.40;46.20
20091;DHT22;10205;49.678;6.560;2023-06-22T01:44:08;29.30;46.30
20091;DHT22;10205;49.678;6.560;2023-06-22T01:46:36;29.30;46.60
20091;DHT22;10205;49.678;6.560;2023-06-22T01:49:06;29.30;46.70
20091;DHT22;10205;49.678;6.560;2023-06-22T01:51:34;29.20;46.50
20091;DHT22;10205;49.678;6.560;2023-06-22T01:54:02;29.20;46.50
20091;DHT22;10205;49.678;6.560;2023-06-22T01:56:29;29.10;47.70
20091;DHT22;10205;49.678;6.560;2023-06-22T01:59:02;29.10;47.90
20091;DHT22;10205;49.678;6.560;2023-06-22T02:01:42;29.10;47.40
20091;DHT22;10205;49.678;6.560;2023-06-22T02:04:13;29.00;47.40
20091;DHT22;10205;49.678;6.560;2023-06-22T02:06:48;29.00;47.10
20091;DHT22;10205;49.678;6.560;2023-06-22T02:09:20;28.90;47.10
20091;DHT22;10205;49.678;6.560;2023-06-22T02:11:51;28.90;47.10
20091;DHT22;10205;49.678;6.560;2023-06-22T02:14:21;28.90;47.30
20091;DHT22;10205;49.678;6.560;2023-06-22T02:16:50;28.80;47.10
20091;DHT22;10205;49.678;6.560;2023-06-22T02:19:23;28.70;47.30
20091;DHT22;10205;49.678;6.560;2023-06-22T02:21:51;28.70;47.30
20091;DHT22;10205;49.678;6.560;2023-06-22T02:24:18;28.70;47.30
20091;DHT22;10205;49.678;6.560;2023-06-22T02:26:49;28.70;47.50
20091;DHT22;10205;49.678;6.560;2023-06-22T02:29:16;28.60;47.50
20091;DHT22;10205;49.678;6.560;2023-06-22T02:31:44;28.60;47.50
20091;DHT22;10205;49.678;6.560;2023-06-22T02:34:12;28.60;47.50
20091;DHT22;10205;49.678;6.560;2023-06-22T02:36:44;28.50;47.80
20091;DHT22;10205;49.678;6.560;2023-06-22T02:39:17;28.50;47.60
20091;DHT22;10205;49.678;6.560;2023-06-22T02:41:47;28.50;47.80
20091;DHT22;10205;49.678;6.560;2023-06-22T02:44:15;28.40;47.70
20091;DHT22;10205;49.678;6.560;2023-06-22T02:46:42;28.50;47.70
20091;DHT22;10205;49.678;6.560;2023-06-22T02:49:09;28.40;48.10
20091;DHT22;10205;49.678;6.560;2023-06-22T02:51:39;28.40;48.00
20091;DHT22;10205;49.678;6.560;2023-06-22T02:54:08;28.30;47.90
20091;DHT22;10205;49.678;6.560;2023-06-22T02:56:35;28.30;47.90
20091;DHT22;10205;49.678;6.560;2023-06-22T02:59:02;28.30;48.00
20091;DHT22;10205;49.678;6.560;2023-06-22T03:01:30;28.20;48.00
20091;DHT22;10205;49.678;6.560;2023-06-22T03:04:03;28.20;48.10
20091;DHT22;10205;49.678;6.560;2023-06-22T03:06:32;28.20;48.30
20091;DHT22;10205;49.678;6.560;2023-06-22T03:09:01;28.20;48.70
20091;DHT22;10205;49.678;6.560;2023-06-22T03:11:30;28.10;48.20
20091;DHT22;10205;49.678;6.560;2023-06-22T03:13:58;28.10;48.20
20091;DHT22;10205;49.678;6.560;2023-06-22T03:16:26;28.10;48.60
20091;DHT22;10205;49.678;6.560;2023-06-22T03:18:53;28.00;48.40
20091;DHT22;10205;49.678;6.560;2023-06-22T03:21:22;28.00;48.50
20091;DHT22;10205;49.678;6.560;2023-06-22T03:23:51;28.00;48.50
20091;DHT22;10205;49.678;6.560;2023-06-22T03:26:19;27.90;48.60
20091;DHT22;10205;49.678;6.560;2023-06-22T03:28:46;27.90;48.50
20091;DHT22;10205;49.678;6.560;2023-06-22T03:31:14;27.90;48.70
20091;DHT22;10205;49.678;6.560;2023-06-22T03:33:41;27.80;48.70
20091;DHT22;10205;49.678;6.560;2023-06-22T03:36:08;27.80;49.00
20091;DHT22;10205;49.678;6.560;2023-06-22T03:38:35;27.80;49.20
20091;DHT22;10205;49.678;6.560;2023-06-22T03:41:04;27.70;49.00
20091;DHT22;10205;49.678;6.560;2023-06-22T03:43:31;27.70;49.70
20091;DHT22;10205;49.678;6.560;2023-06-22T03:45:58;27.70;49.20
20091;DHT22;10205;49.678;6.560;2023-06-22T03:48:26;27.70;49.20
20091;DHT22;10205;49.678;6.560;2023-06-22T03:50:53;27.60;49.80
20091;DHT22;10205;49.678;6.560;2023-06-22T03:53:20;27.60;49.50
20091;DHT22;10205;49.678;6.560;2023-06-22T03:55:49;27.60;50.00
20091;DHT22;10205;49.678;6.560;2023-06-22T03:58:19;27.60;49.40
20091;DHT22;10205;49.678;6.560;2023-06-22T04:00:50;27.50;49.40
20091;DHT22;10205;49.678;6.560;2023-06-22T04:03:19;27.50;49.30
20091;DHT22;10205;49.678;6.560;2023-06-22T04:05:46;27.50;49.70
20091;DHT22;10205;49.678;6.560;2023-06-22T04:08:15;27.50;49.50
20091;DHT22;10205;49.678;6.560;2023-06-22T04:10:42;27.40;49.60
20091;DHT22;10205;49.678;6.560;2023-06-22T04:13:10;27.40;49.50
20091;DHT22;10205;49.678;6.560;2023-06-22T04:15:39;27.40;49.80
20091;DHT22;10205;49.678;6.560;2023-06-22T04:18:06;27.40;49.70
20091;DHT22;10205;49.678;6.560;2023-06-22T04:20:33;27.40;49.60
20091;DHT22;10205;49.678;6.560;2023-06-22T04:23:01;27.30;50.20
20091;DHT22;10205;49.678;6.560;2023-06-22T04:25:28;27.30;50.30
20091;DHT22;10205;49.678;6.560;2023-06-22T04:27:55;27.30;50.10
20091;DHT22;10205;49.678;6.560;2023-06-22T04:30:23;27.30;50.00
20091;DHT22;10205;49.678;6.560;2023-06-22T04:32:54;27.30;50.10
20091;DHT22;10205;49.678;6.560;2023-06-22T04:35:23;27.20;50.30
20091;DHT22;10205;49.678;6.560;2023-06-22T04:37:50;27.20;50.10
20091;DHT22;10205;49.678;6.560;2023-06-22T04:40:21;27.20;50.10
20091;DHT22;10205;49.678;6.560;2023-06-22T04:42:49;27.20;51.00
20091;DHT22;10205;49.678;6.560;2023-06-22T04:45:19;27.20;50.20
20091;DHT22;10205;49.678;6.560;2023-06-22T04:47:47;27.10;51.20
20091;DHT22;10205;49.678;6.560;2023-06-22T04:50:16;27.10;51.00
20091;DHT22;10205;49.678;6.560;2023-06-22T04:52:46;27.10;51.10
20091;DHT22;10205;49.678;6.560;2023-06-22T04:55:14;27.10;50.80
20091;DHT22;10205;49.678;6.560;2023-06-22T04:57:45;27.00;50.60
20091;DHT22;10205;49.678;6.560;2023-06-22T05:00:15;27.00;50.50
20091;DHT22;10205;49.678;6.560;2023-06-22T05:02:46;27.00;51.00
20091;DHT22;10205;49.678;6.560;2023-06-22T05:05:13;27.00;50.80
20091;DHT22;10205;49.678;6.560;2023-06-22T05:07:43;27.00;50.80
20091;DHT22;10205;49.678;6.560;2023-06-22T05:10:14;26.90;51.00
20091;DHT22;10205;49.678;6.560;2023-06-22T05:12:42;26.90;50.80
20091;DHT22;10205;49.678;6.560;2023-06-22T05:15:09;26.90;51.70
20091;DHT22;10205;49.678;6.560;2023-06-22T05:17:37;26.90;51.80
20091;DHT22;10205;49.678;6.560;2023-06-22T05:20:09;26.90;51.40
20091;DHT22;10205;49.678;6.560;2023-06-22T05:22:38;26.80;51.20
20091;DHT22;10205;49.678;6.560;2023-06-22T05:25:08;26.80;51.10
20091;DHT22;10205;49.678;6.560;2023-06-22T05:27:37;26.80;51.40
20091;DHT22;10205;49.678;6.560;2023-06-22T05:30:07;26.80;51.50
20091;DHT22;10205;49.678;6.560;2023-06-22T05:32:35;26.80;51.50
20091;DHT22;10205;49.678;6.560;2023-06-22T05:35:03;26.80;51.40
20091;DHT22;10205;49.678;6.560;2023-06-22T05:37:31;26.80;52.30
20091;DHT22;10205;49.678;6.560;2023-06-22T05:40:00;26.70;52.40
20091;DHT22;10205;49.678;6.560;2023-06-22T05:42:28;26.70;52.30
20091;DHT22;10205;49.678;6.560;2023-06-22T05:44:56;26.70;51.60
20091;DHT22;10205;49.678;6.560;2023-06-22T05:47:24;26.70;51.70
20091;DHT22;10205;49.678;6.560;2023-06-22T05:49:51;26.70;51.60
20091;DHT22;10205;49.678;6.560;2023-06-22T05:52:18;26.70;52.70
20091;DHT22;10205;49.678;6.560;2023-06-22T05:54:46;26.70;52.10
20091;DHT22;10205;49.678;6.560;2023-06-22T05:57:15;26.70;52.40
20091;DHT22;10205;49.678;6.560;2023-06-22T05:59:42;26.60;51.90
20091;DHT22;10205;49.678;6.560;2023-06-22T06:02:09;26.70;52.10
20091;DHT22;10205;49.678;6.560;2023-06-22T06:04:36;26.60;52.50
20091;DHT22;10205;49.678;6.560;2023-06-22T06:07:04;26.70;53.00
20091;DHT22;10205;49.678;6.560;2023-06-22T06:09:31;26.60;52.60
20091;DHT22;10205;49.678;6.560;2023-06-22T06:11:58;26.60;52.70
20091;DHT22;10205;49.678;6.560;2023-06-22T06:14:29;26.60;52.30
20091;DHT22;10205;49.678;6.560;2023-06-22T06:16:57;26.60;53.10
20091;DHT22;10205;49.678;6.560;2023-06-22T06:19:24;26.60;53.30
20091;DHT22;10205;49.678;6.560;2023-06-22T06:21:51;26.60;53.70
20091;DHT22;10205;49.678;6.560;2023-06-22T06:24:18;26.60;53.30
20091;DHT22;10205;49.678;6.560;2023-06-22T06:26:46;26.60;53.30
20091;DHT22;10205;49.678;6.560;2023-06-22T06:29:13;26.60;53.00
20091;DHT22;10205;49.678;6.560;2023-06-22T06:31:43;26.60;53.60
20091;DHT22;10205;49.678;6.560;2023-06-22T06:34:10;26.60;53.30
20091;DHT22;10205;49.678;6.560;2023-06-22T06:36:37;26.60;53.20
20091;DHT22;10205;49.678;6.560;2023-06-22T06:39:05;26.60;54.00
20091;DHT22;10205;49.678;6.560;2023-06-22T06:41:32;26.60;53.70
20091;DHT22;10205;49.678;6.560;2023-06-22T06:43:59;26.60;54.30
20091;DHT22;10205;49.678;6.560;2023-06-22T06:46:26;26.60;54.10
20091;DHT22;10205;49.678;6.560;2023-06-22T06:48:55;26.60;54.50
20091;DHT22;10205;49.678;6.560;2023-06-22T06:51:22;26.50;54.80
20091;DHT22;10205;49.678;6.560;2023-06-22T06:53:50;26.50;54.90
20091;DHT22;10205;49.678;6.560;2023-06-22T06:56:17;26.60;54.90
20091;DHT22;10205;49.678;6.560;2023-06-22T06:58:45;26.60;55.00
20091;DHT22;10205;49.678;6.560;2023-06-22T07:01:12;26.60;55.70
20091;DHT22;10205;49.678;6.560;2023-06-22T07:03:40;26.60;56.00
20091;DHT22;10205;49.678;6.560;2023-06-22T07:06:09;26.60;55.60
20091;DHT22;10205;49.678;6.560;2023-06-22T07:08:37;26.60;55.20
20091;DHT22;10205;49.678;6.560;2023-06-22T07:11:05;26.60;55.10
20091;DHT22;10205;49.678;6.560;2023-06-22T07:13:32;26.60;55.30
20091;DHT22;10205;49.678;6.560;2023-06-22T07:16:00;26.60;55.40
20091;DHT22;10205;49.678;6.560;2023-06-22T07:18:27;26.60;55.40
20091;DHT22;10205;49.678;6.560;2023-06-22T07:20:54;26.70;55.40
20091;DHT22;10205;49.678;6.560;2023-06-22T07:23:23;26.70;56.00
20091;DHT22;10205;49.678;6.560;2023-06-22T07:25:50;26.70;55.80
20091;DHT22;10205;49.678;6.560;2023-06-22T07:28:17;26.70;55.90
20091;DHT22;10205;49.678;6.560;2023-06-22T07:30:45;26.70;56.30
20091;DHT22;10205;49.678;6.560;2023-06-22T07:33:13;26.70;56.30
20091;DHT22;10205;49.678;6.560;2023-06-22T07:35:40;26.80;55.80
20091;DHT22;10205;49.678;6.560;2023-06-22T07:38:07;26.90;56.30
20091;DHT22;10205;49.678;6.560;2023-06-22T07:40:36;26.90;56.50
20091;DHT22;10205;49.678;6.560;2023-06-22T07:43:03;26.90;55.90
20091;DHT22;10205;49.678;6.560;2023-06-22T07:45:31;26.90;56.40
20091;DHT22;10205;49.678;6.560;2023-06-22T07:48:00;27.00;56.40
20091;DHT22;10205;49.678;6.560;2023-06-22T07:50:27;27.00;56.60
20091;DHT22;10205;49.678;6.560;2023-06-22T07:52:54;27.10;56.60
20091;DHT22;10205;49.678;6.560;2023-06-22T07:55:22;27.10;56.30
20091;DHT22;10205;49.678;6.560;2023-06-22T07:57:50;27.20;56.00
20091;DHT22;10205;49.678;6.560;2023-06-22T08:00:18;27.20;56.30
20091;DHT22;10205;49.678;6.560;2023-06-22T08:02:46;27.30;55.90
20091;DHT22;10205;49.678;6.560;2023-06-22T08:05:14;27.40;56.50
20091;DHT22;10205;49.678;6.560;2023-06-22T08:07:43;27.40;56.40
20091;DHT22;10205;49.678;6.560;2023-06-22T08:10:11;27.50;56.10
20091;DHT22;10205;49.678;6.560;2023-06-22T08:12:39;27.60;55.90
20091;DHT22;10205;49.678;6.560;2023-06-22T08:15:08;27.60;56.10
20091;DHT22;10205;49.678;6.560;2023-06-22T08:17:36;27.60;55.70
20091;DHT22;10205;49.678;6.560;2023-06-22T08:20:04;27.70;56.20
20091;DHT22;10205;49.678;6.560;2023-06-22T08:22:35;27.70;56.10
20091;DHT22;10205;49.678;6.560;2023-06-22T08:25:03;27.80;55.70
20091;DHT22;10205;49.678;6.560;2023-06-22T08:27:32;27.80;55.60
20091;DHT22;10205;49.678;6.560;2023-06-22T08:29:59;27.90;55.30
20091;DHT22;10205;49.678;6.560;2023-06-22T08:32:28;28.00;56.00
20091;DHT22;10205;49.678;6.560;2023-06-22T08:34:56;28.00;55.20
20091;DHT22;10205;49.678;6.560;2023-06-22T08:37:24;28.10;55.10
20091;DHT22;10205;49.678;6.560;2023-06-22T08:39:56;28.10;55.00
20091;DHT22;10205;49.678;6.560;2023-06-22T08:42:23;28.20;55.20
20091;DHT22;10205;49.678;6.560;2023-06-22T08:44:51;28.20;55.00
20091;DHT22;10205;49.678;6.560;2023-06-22T08:47:19;28.30;54.80
20091;DHT22;10205;49.678;6.560;2023-06-22T08:49:48;28.30;55.40
20091;DHT22;10205;49.678;6.560;2023-06-22T08:52:17;28.40;54.70
20091;DHT22;10205;49.678;6.560;2023-06-22T08:54:44;28.40;54.70
20091;DHT22;10205;49.678;6.560;2023-06-22T08:57:11;28.40;54.50
20091;DHT22;10205;49.678;6.560;2023-06-22T08:59:38;28.40;54.40
20091;DHT22;10205;49.678;6.560;2023-06-22T09:02:06;28.50;54.40
20091;DHT22;10205;49.678;6.560;2023-06-22T09:04:33;28.50;54.30
20091;DHT22;10205;49.678;6.560;2023-06-22T09:07:04;28.50;54.30
20091;DHT22;10205;49.678;6.560;2023-06-22T09:09:32;28.60;54.70
20091;DHT22;10205;49.678;6.560;2023-06-22T09:11:59;28.60;54.60
20091;DHT22;10205;49.678;6.560;2023-06-22T09:14:27;28.60;54.80
20091;DHT22;10205;49.678;6.560;2023-06-22T09:16:54;28.60;54.40
20091;DHT22;10205;49.678;6.560;2023-06-22T09:19:22;28.60;54.50
20091;DHT22;10205;49.678;6.560;2023-06-22T09:21:50;28.60;54.90
20091;DHT22;10205;49.678;6.560;2023-06-22T09:24:19;28.70;54.90
20091;DHT22;10205;49.678;6.560;2023-06-22T09:26:48;28.70;55.70
20091;DHT22;10205;49.678;6.560;2023-06-22T09:29:16;28.70;55.00
20091;DHT22;10205;49.678;6.560;2023-06-22T09:31:43;28.70;54.60
20091;DHT22;10205;49.678;6.560;2023-06-22T09:34:10;28.70;54.80
20091;DHT22;10205;49.678;6.560;2023-06-22T09:36:41;28.70;54.30
20091;DHT22;10205;49.678;6.560;2023-06-22T09:39:08;28.70;54.60
20091;DHT22;10205;49.678;6.560;2023-06-22T09:41:37;28.70;54.70
20091;DHT22;10205;49.678;6.560;2023-06-22T09:44:04;28.80;54.50
20091;DHT22;10205;49.678;6.560;2023-06-22T09:46:36;28.80;54.10
20091;DHT22;10205;49.678;6.560;2023-06-22T09:49:03;28.80;54.00
20091;DHT22;10205;49.678;6.560;2023-06-22T09:51:31;28.80;54.30
20091;DHT22;10205;49.678;6.560;2023-06-22T09:53:58;28.80;53.70
20091;DHT22;10205;49.678;6.560;2023-06-22T09:56:25;28.80;53.90
20091;DHT22;10205;49.678;6.560;2023-06-22T09:58:55;28.80;54.70
20091;DHT22;10205;49.678;6.560;2023-06-22T10:01:22;28.80;54.20
20091;DHT22;10205;49.678;6.560;2023-06-22T10:03:52;28.80;54.50
20091;DHT22;10205;49.678;6.560;2023-06-22T10:06:21;28.80;54.50
20091;DHT22;10205;49.678;6.560;2023-06-22T10:08:50;28.80;54.00
20091;DHT22;10205;49.678;6.560;2023-06-22T10:11:18;28.80;54.70
20091;DHT22;10205;49.678;6.560;2023-06-22T10:13:45;28.80;54.60
20091;DHT22;10205;49.678;6.560;2023-06-22T10:16:13;28.90;55.10
20091;DHT22;10205;49.678;6.560;2023-06-22T10:18:40;28.90;54.90
20091;DHT22;10205;49.678;6.560;2023-06-22T10:21:08;28.90;54.40
20091;DHT22;10205;49.678;6.560;2023-06-22T10:23:35;28.90;54.30
20091;DHT22;10205;49.678;6.560;2023-06-22T10:26:02;28.90;54.60
20091;DHT22;10205;49.678;6.560;2023-06-22T10:28:29;28.90;54.80
20091;DHT22;10205;49.678;6.560;2023-06-22T10:30:57;28.90;55.30
20091;DHT22;10205;49.678;6.560;2023-06-22T10:33:25;28.90;54.30
20091;DHT22;10205;49.678;6.560;2023-06-22T10:35:54;29.00;54.10
20091;DHT22;10205;49.678;6.560;2023-06-22T10:38:21;28.90;54.60
20091;DHT22;10205;49.678;6.560;2023-06-22T10:40:49;29.00;54.90
20091;DHT22;10205;49.678;6.560;2023-06-22T10:43:16;29.00;55.00
20091;DHT22;10205;49.678;6.560;2023-06-22T10:45:43;29.00;55.30
20091;DHT22;10205;49.678;6.560;2023-06-22T10:48:11;29.10;54.70
20091;DHT22;10205;49.678;6.560;2023-06-22T10:50:40;29.10;55.10
20091;DHT22;10205;49.678;6.560;2023-06-22T10:53:07;29.10;55.00
20091;DHT22;10205;49.678;6.560;2023-06-22T10:55:34;29.10;54.50
20091;DHT22;10205;49.678;6.560;2023-06-22T10:58:02;29.10;54.60
20091;DHT22;10205;49.678;6.560;2023-06-22T11:00:29;29.20;55.20
20091;DHT22;10205;49.678;6.560;2023-06-22T11:02:56;29.20;54.60
20091;DHT22;10205;49.678;6.560;2023-06-22T11:05:24;29.20;55.00
20091;DHT22;10205;49.678;6.560;2023-06-22T11:07:52;29.20;55.40
20091;DHT22;10205;49.678;6.560;2023-06-22T11:10:19;29.30;55.40
20091;DHT22;10205;49.678;6.560;2023-06-22T11:12:46;29.30;54.90
20091;DHT22;10205;49.678;6.560;2023-06-22T11:15:14;29.30;54.60
20091;DHT22;10205;49.678;6.560;2023-06-22T11:17:41;29.30;54.70
20091;DHT22;10205;49.678;6.560;2023-06-22T11:20:09;29.40;55.00
20091;DHT22;10205;49.678;6.560;2023-06-22T11:22:37;29.40;54.80
20091;DHT22;10205;49.678;6.560;2023-06-22T11:25:07;29.40;55.70
20091;DHT22;10205;49.678;6.560;2023-06-22T11:27:36;29.40;55.40
20091;DHT22;10205;49.678;6.560;2023-06-22T11:30:04;29.50;55.40
20091;DHT22;10205;49.678;6.560;2023-06-22T11:32:33;29.50;54.90
20091;DHT22;10205;49.678;6.560;2023-06-22T11:35:00;29.50;55.20
20091;DHT22;10205;49.678;6.560;2023-06-22T11:37:28;29.60;54.90
20091;DHT22;10205;49.678;6.560;2023-06-22T11:39:55;29.60;54.80
20091;DHT22;10205;49.678;6.560;2023-06-22T11:42:23;29.60;54.90
20091;DHT22;10205;49.678;6.560;2023-06-22T11:44:51;29.70;55.00
20091;DHT22;10205;49.678;6.560;2023-06-22T11:47:18;29.70;54.70
20091;DHT22;10205;49.678;6.560;2023-06-22T11:49:45;29.80;54.60
20091;DHT22;10205;49.678;6.560;2023-06-22T11:52:13;29.80;54.60
20091;DHT22;10205;49.678;6.560;2023-06-22T11:54:40;29.80;55.00
20091;DHT22;10205;49.678;6.560;2023-06-22T11:57:07;29.90;54.90
20091;DHT22;10205;49.678;6.560;2023-06-22T11:59:36;29.90;55.20
20091;DHT22;10205;49.678;6.560;2023-06-22T12:02:04;30.00;55.00
20091;DHT22;10205;49.678;6.560;2023-06-22T12:04:34;30.10;54.90
20091;DHT22;10205;49.678;6.560;2023-06-22T12:07:02;30.10;54.50
20091;DHT22;10205;49.678;6.560;2023-06-22T12:09:29;30.20;54.50
20091;DHT22;10205;49.678;6.560;2023-06-22T12:11:57;30.30;54.50
20091;DHT22;10205;49.678;6.560;2023-06-22T12:14:24;30.30;54.50
20091;DHT22;10205;49.678;6.560;2023-06-22T12:16:52;30.40;54.30
20091;DHT22;10205;49.678;6.560;2023-06-22T12:19:19;30.50;54.20
20091;DHT22;10205;49.678;6.560;2023-06-22T12:21:50;30.50;54.30
20091;DHT22;10205;49.678;6.560;2023-06-22T12:24:17;30.60;54.00
20091;DHT22;10205;49.678;6.560;2023-06-22T12:26:44;30.70;54.20
20091;DHT22;10205;49.678;6.560;2023-06-22T12:29:12;30.80;53.70
20091;DHT22;10205;49.678;6.560;2023-06-22T12:31:39;30.80;53.40
20091;DHT22;10205;49.678;6.560;2023-06-22T12:34:08;30.90;53.80
20091;DHT22;10205;49.678;6.560;2023-06-22T12:36:35;31.00;53.40
20091;DHT22;10205;49.678;6.560;2023-06-22T12:39:03;31.10;53.30
20091;DHT22;10205;49.678;6.560;2023-06-22T12:41:30;31.10;53.60
20091;DHT22;10205;49.678;6.560;2023-06-22T12:43:57;31.20;53.30
20091;DHT22;10205;49.678;6.560;2023-06-22T12:46:26;31.30;53.20
20091;DHT22;10205;49.678;6.560;2023-06-22T12:48:53;31.40;53.50
20091;DHT22;10205;49.678;6.560;2023-06-22T12:51:22;31.40;53.60
20091;DHT22;10205;49.678;6.560;2023-06-22T12:53:50;31.50;52.90
20091;DHT22;10205;49.678;6.560;2023-06-22T12:56:17;31.50;52.50
20091;DHT22;10205;49.678;6.560;2023-06-22T12:58:45;31.60;52.40
20091;DHT22;10205;49.678;6.560;2023-06-22T13:01:12;31.70;52.40
20091;DHT22;10205;49.678;6.560;2023-06-22T13:03:40;31.80;52.40
20091;DHT22;10205;49.678;6.560;2023-06-22T13:06:08;31.80;52.10
20091;DHT22;10205;49.678;6.560;2023-06-22T13:08:37;31.90;52.30
20091;DHT22;10205;49.678;6.560;2023-06-22T13:11:06;31.90;51.90
20091;DHT22;10205;49.678;6.560;2023-06-22T13:13:33;32.00;52.40
20091;DHT22;10205;49.678;6.560;2023-06-22T13:16:01;32.00;52.00
20091;DHT22;10205;49.678;6.560;2023-06-22T13:18:28;32.00;51.90
20091;DHT22;10205;49.678;6.560;2023-06-22T13:20:55;32.00;52.20
20091;DHT22;10205;49.678;6.560;2023-06-22T13:23:23;32.10;52.10
20091;DHT22;10205;49.678;6.560;2023-06-22T13:25:52;32.00;51.60
20091;DHT22;10205;49.678;6.560;2023-06-22T13:28:19;32.10;51.40
20091;DHT22;10205;49.678;6.560;2023-06-22T13:30:47;32.10;51.40
20091;DHT22;10205;49.678;6.560;2023-06-22T13:33:14;32.00;51.20
20091;DHT22;10205;49.678;6.560;2023-06-22T13:35:42;32.00;51.10
20091;DHT22;10205;49.678;6.560;2023-06-22T13:38:10;32.00;51.10
20091;DHT22;10205;49.678;6.560;2023-06-22T13:40:37;32.00;51.00
20091;DHT22;10205;49.678;6.560;2023-06-22T13:43:06;31.90;50.60
20091;DHT22;10205;49.678;6.560;2023-06-22T13:45:33;31.90;50.80
20091;DHT22;10205;49.678;6.560;2023-06-22T13:48:01;31.80;50.80
20091;DHT22;10205;49.678;6.560;2023-06-22T13:50:28;31.80;50.90
20091;DHT22;10205;49.678;6.560;2023-06-22T13:52:56;31.70;50.90
20091;DHT22;10205;49.678;6.560;2023-06-22T13:55:23;31.70;50.80
20091;DHT22;10205;49.678;6.560;2023-06-22T13:57:52;31.60;50.90
20091;DHT22;10205;49.678;6.560;2023-06-22T14:00:21;31.60;50.90
20091;DHT22;10205;49.678;6.560;2023-06-22T14:02:48;31.60;50.90
20091;DHT22;10205;49.678;6.560;2023-06-22T14:05:16;31.50;50.80
20091;DHT22;10205;49.678;6.560;2023-06-22T14:07:43;31.50;50.80
20091;DHT22;10205;49.678;6.560;2023-06-22T14:10:10;31.40;50.90
20091;DHT22;10205;49.678;6.560;2023-06-22T14:12:38;31.40;50.90
20091;DHT22;10205;49.678;6.560;2023-06-22T14:15:06;31.30;50.90
20091;DHT22;10205;49.678;6.560;2023-06-22T14:17:35;31.30;51.00
20091;DHT22;10205;49.678;6.560;2023-06-22T14:20:03;31.20;50.90
20091;DHT22;10205;49.678;6.560;2023-06-22T14:22:31;31.20;51.00
20091;DHT22;10205;49.678;6.560;2023-06-22T14:24:58;31.10;51.00
20091;DHT22;10205;49.678;6.560;2023-06-22T14:27:27;31.00;51.00
20091;DHT22;10205;49.678;6.560;2023-06-22T14:29:54;31.00;51.00
20091;DHT22;10205;49.678;6.560;2023-06-22T14:32:22;30.90;51.10
20091;DHT22;10205;49.678;6.560;2023-06-22T14:34:51;30.80;51.20
20091;DHT22;10205;49.678;6.560;2023-06-22T14:37:18;30.70;51.40
20091;DHT22;10205;49.678;6.560;2023-06-22T14:39:45;30.70;51.40
20091;DHT22;10205;49.678;6.560;2023-06-22T14:42:12;30.60;51.60
20091;DHT22;10205;49.678;6.560;2023-06-22T14:44:40;30.60;51.70
20091;DHT22;10205;49.678;6.560;2023-06-22T14:47:08;30.60;52.10
20091;DHT22;10205;49.678;6.560;2023-06-22T14:49:35;30.50;52.60
20091;DHT22;10205;49.678;6.560;2023-06-22T14:52:04;30.50;52.90
20091;DHT22;10205;49.678;6.560;2023-06-22T14:54:33;30.50;53.40
20091;DHT22;10205;49.678;6.560;2023-06-22T14:57:00;30.50;53.40
20091;DHT22;10205;49.678;6.560;2023-06-22T14:59:27;30.50;53.80
20091;DHT22;10205;49.678;6.560;2023-06-22T15:01:55;30.50;54.10
20091;DHT22;10205;49.678;6.560;2023-06-22T15:04:22;30.50;54.20
20091;DHT22;10205;49.678;6.560;2023-06-22T15:06:49;30.50;54.60
20091;DHT22;10205;49.678;6.560;2023-06-22T15:09:18;30.50;54.60
20091;DHT22;10205;49.678;6.560;2023-06-22T15:11:45;30.60;54.70
20091;DHT22;10205;49.678;6.560;2023-06-22T15:14:13;30.60;54.90
20091;DHT22;10205;49.678;6.560;2023-06-22T15:16:41;30.60;55.00
20091;DHT22;10205;49.678;6.560;2023-06-22T15:19:08;30.60;54.80
20091;DHT22;10205;49.678;6.560;2023-06-22T15:21:38;30.70;54.90
20091;DHT22;10205;49.678;6.560;2023-06-22T15:24:05;30.70;54.90
20091;DHT22;10205;49.678;6.560;2023-06-22T15:26:34;30.80;54.40
20091;DHT22;10205;49.678;6.560;2023-06-22T15:29:01;30.80;54.40
20091;DHT22;10205;49.678;6.560;2023-06-22T15:31:29;30.80;55.00
20091;DHT22;10205;49.678;6.560;2023-06-22T15:33:56;30.90;54.80
20091;DHT22;10205;49.678;6.560;2023-06-22T15:36:23;30.90;54.80